createdAt,value
2018-12-11T00:00:41.525Z,0
2018-12-11T00:01:41.510Z,0
2018-12-11T00:02:41.495Z,0
2018-12-11T00:03:41.483Z,0
2018-12-11T00:04:41.472Z,0
2018-12-11T00:05:41.458Z,0
2018-12-11T00:06:41.442Z,0
2018-12-11T00:07:41.439Z,0
2018-12-11T00:08:41.418Z,0
2018-12-11T00:09:41.409Z,0
2018-12-11T00:10:41.393Z,0
2018-12-11T00:11:41.409Z,0
2018-12-11T00:12:41.368Z,0
2018-12-11T00:13:41.353Z,0
2018-12-11T00:14:41.345Z,0
2018-12-11T00:15:41.344Z,0
2018-12-11T00:16:41.322Z,0
2018-12-11T00:17:41.301Z,0
2018-12-11T00:18:41.298Z,0
2018-12-11T00:19:41.276Z,0
2018-12-11T00:20:41.284Z,0
2018-12-11T00:21:41.264Z,0
2018-12-11T00:22:41.245Z,0
2018-12-11T00:23:41.226Z,0
2018-12-11T00:24:41.212Z,0
2018-12-11T00:25:41.198Z,0
2018-12-11T00:26:41.198Z,0
2018-12-11T00:27:41.175Z,0
2018-12-11T00:28:41.460Z,0
2018-12-11T00:29:41.150Z,0
2018-12-11T00:30:41.136Z,0
2018-12-11T00:31:41.126Z,0
2018-12-11T00:32:41.106Z,0
2018-12-11T00:33:41.097Z,0
2018-12-11T00:34:41.087Z,0
2018-12-11T00:35:41.071Z,0
2018-12-11T00:36:41.063Z,0
2018-12-11T00:37:41.048Z,0
2018-12-11T00:38:41.033Z,0
2018-12-11T00:39:41.073Z,0
2018-12-11T00:40:41.010Z,0
2018-12-11T00:41:40.994Z,0
2018-12-11T00:42:40.983Z,0
2018-12-11T00:43:40.979Z,0
2018-12-11T00:44:40.959Z,0
2018-12-11T00:45:40.942Z,0
2018-12-11T00:46:40.973Z,0
2018-12-11T00:47:40.922Z,0
2018-12-11T00:48:40.668Z,0
2018-12-11T00:49:40.895Z,0
2018-12-11T00:50:40.878Z,0
2018-12-11T00:51:40.874Z,0
2018-12-11T00:52:40.866Z,0
2018-12-11T00:53:40.841Z,0
2018-12-11T00:54:40.827Z,0
2018-12-11T00:55:40.816Z,0
2018-12-11T00:56:40.800Z,0
2018-12-11T00:57:40.792Z,0
2018-12-11T00:58:40.781Z,0
2018-12-11T00:59:41.016Z,0
2018-12-11T01:00:40.756Z,0
2018-12-11T01:01:40.736Z,0
2018-12-11T01:02:40.724Z,0
2018-12-11T01:03:41.792Z,0
2018-12-11T01:04:40.704Z,0
2018-12-11T01:05:40.686Z,0
2018-12-11T01:06:40.677Z,0
2018-12-11T01:07:40.662Z,0
2018-12-11T01:08:40.648Z,0
2018-12-11T01:09:40.635Z,0
2018-12-11T01:10:40.622Z,0
2018-12-11T01:11:40.608Z,0
2018-12-11T01:12:40.599Z,0
2018-12-11T01:13:40.583Z,0
2018-12-11T01:14:40.579Z,0
2018-12-11T01:15:40.559Z,0
2018-12-11T01:16:40.546Z,0
2018-12-11T01:17:40.532Z,0
2018-12-11T01:18:40.525Z,0
2018-12-11T01:19:40.511Z,0
2018-12-11T01:20:40.499Z,0
2018-12-11T01:21:40.492Z,0
2018-12-11T01:22:40.473Z,0
2018-12-11T01:23:40.455Z,0
2018-12-11T01:24:40.452Z,0
2018-12-11T01:25:40.434Z,0
2018-12-11T01:26:40.423Z,0
2018-12-11T01:27:40.410Z,0
2018-12-11T01:28:40.387Z,0
2018-12-11T01:29:40.381Z,0
2018-12-11T01:30:40.613Z,0
2018-12-11T01:31:40.355Z,0
2018-12-11T01:32:40.340Z,0
2018-12-11T01:33:40.326Z,0
2018-12-11T01:34:40.319Z,0
2018-12-11T01:35:40.304Z,0
2018-12-11T01:36:40.298Z,0
2018-12-11T01:37:40.278Z,0
2018-12-11T01:38:40.264Z,0
2018-12-11T01:39:40.249Z,0
2018-12-11T01:40:40.238Z,0
2018-12-11T01:41:40.231Z,0
2018-12-11T01:42:40.216Z,0
2018-12-11T01:43:40.200Z,0
2018-12-11T01:44:40.184Z,0
2018-12-11T01:45:40.174Z,0
2018-12-11T01:46:40.851Z,0
2018-12-11T01:47:40.146Z,0
2018-12-11T01:48:40.134Z,0
2018-12-11T01:49:40.123Z,0
2018-12-11T01:50:40.109Z,0
2018-12-11T01:51:40.106Z,0
2018-12-11T01:52:40.085Z,0
2018-12-11T01:53:40.080Z,0
2018-12-11T01:54:40.059Z,0
2018-12-11T01:55:40.047Z,0
2018-12-11T01:56:40.040Z,0
2018-12-11T01:57:40.020Z,0
2018-12-11T01:58:40.008Z,0
2018-12-11T01:59:39.996Z,0
2018-12-11T02:00:39.988Z,0
2018-12-11T02:01:39.968Z,0
2018-12-11T02:02:39.958Z,0
2018-12-11T02:03:39.951Z,0
2018-12-11T02:04:39.935Z,0
2018-12-11T02:05:39.923Z,0
2018-12-11T02:06:39.907Z,0
2018-12-11T02:07:39.894Z,0
2018-12-11T02:08:39.885Z,0
2018-12-11T02:09:39.872Z,0
2018-12-11T02:10:39.888Z,0
2018-12-11T02:11:39.843Z,0
2018-12-11T02:12:39.830Z,0
2018-12-11T02:13:39.818Z,0
2018-12-11T02:14:39.814Z,0
2018-12-11T02:15:39.797Z,0
2018-12-11T02:16:39.786Z,0
2018-12-11T02:17:39.769Z,0
2018-12-11T02:18:39.757Z,0
2018-12-11T02:19:39.764Z,0
2018-12-11T02:20:39.726Z,0
2018-12-11T02:21:44.462Z,0
2018-12-11T02:22:39.710Z,0
2018-12-11T02:23:39.762Z,0
2018-12-11T02:24:39.679Z,0
2018-12-11T02:25:39.668Z,0
2018-12-11T02:26:39.657Z,0
2018-12-11T02:27:39.647Z,0
2018-12-11T02:28:39.636Z,0
2018-12-11T02:29:39.615Z,0
2018-12-11T02:30:39.622Z,0
2018-12-11T02:31:39.607Z,0
2018-12-11T02:32:39.588Z,0
2018-12-11T02:33:39.817Z,0
2018-12-11T02:34:39.557Z,0
2018-12-11T02:35:39.541Z,0
2018-12-11T02:36:39.538Z,0
2018-12-11T02:37:39.532Z,0
2018-12-11T02:38:39.281Z,0
2018-12-11T02:39:39.494Z,0
2018-12-11T02:40:39.506Z,0
2018-12-11T02:41:39.494Z,0
2018-12-11T02:42:39.455Z,0
2018-12-11T02:43:39.459Z,0
2018-12-11T02:44:39.430Z,0
2018-12-11T02:45:39.416Z,0
2018-12-11T02:46:39.405Z,0
2018-12-11T02:47:39.390Z,0
2018-12-11T02:48:39.383Z,0
2018-12-11T02:49:39.373Z,0
2018-12-11T02:50:39.355Z,0
2018-12-11T02:51:39.341Z,0
2018-12-11T02:52:39.330Z,0
2018-12-11T02:53:39.317Z,0
2018-12-11T02:54:39.306Z,0
2018-12-11T02:55:39.372Z,0
2018-12-11T02:56:39.278Z,0
2018-12-11T02:57:39.261Z,0
2018-12-11T02:58:39.246Z,0
2018-12-11T02:59:39.243Z,0
2018-12-11T03:00:39.224Z,0
2018-12-11T03:01:39.209Z,0
2018-12-11T03:02:39.196Z,0
2018-12-11T03:03:39.189Z,0
2018-12-11T03:04:39.441Z,0
2018-12-11T03:05:39.164Z,0
2018-12-11T03:06:39.151Z,0
2018-12-11T03:07:39.136Z,0
2018-12-11T03:08:39.119Z,0
2018-12-11T03:09:39.408Z,0
2018-12-11T03:10:39.107Z,0
2018-12-11T03:11:39.082Z,0
2018-12-11T03:12:39.079Z,0
2018-12-11T03:13:39.061Z,0
2018-12-11T03:14:39.048Z,0
2018-12-11T03:15:39.036Z,0
2018-12-11T03:16:39.019Z,0
2018-12-11T03:17:39.063Z,0
2018-12-11T03:18:38.998Z,0
2018-12-11T03:19:38.986Z,0
2018-12-11T03:20:39.004Z,0
2018-12-11T03:21:38.958Z,0
2018-12-11T03:22:38.952Z,0
2018-12-11T03:23:38.956Z,0
2018-12-11T03:24:38.922Z,0
2018-12-11T03:25:38.913Z,0
2018-12-11T03:26:38.902Z,0
2018-12-11T03:27:38.876Z,0
2018-12-11T03:28:38.876Z,0
2018-12-11T03:29:38.879Z,0
2018-12-11T03:30:38.859Z,0
2018-12-11T03:31:38.854Z,0
2018-12-11T03:32:38.830Z,0
2018-12-11T03:33:38.812Z,0
2018-12-11T03:34:38.792Z,0
2018-12-11T03:35:39.030Z,0
2018-12-11T03:36:38.782Z,0
2018-12-11T03:37:38.768Z,0
2018-12-11T03:38:38.742Z,0
2018-12-11T03:39:38.731Z,0
2018-12-11T03:40:38.714Z,0
2018-12-11T03:41:38.764Z,0
2018-12-11T03:42:38.697Z,0
2018-12-11T03:43:38.681Z,0
2018-12-11T03:44:38.427Z,0
2018-12-11T03:45:38.668Z,0
2018-12-11T03:46:38.644Z,0
2018-12-11T03:47:38.633Z,0
2018-12-11T03:48:38.621Z,0
2018-12-11T03:49:38.617Z,0
2018-12-11T03:50:38.591Z,0
2018-12-11T03:51:38.579Z,0
2018-12-11T03:52:38.573Z,0
2018-12-11T03:53:38.553Z,0
2018-12-11T03:54:38.548Z,0
2018-12-11T03:55:38.525Z,0
2018-12-11T03:56:38.529Z,0
2018-12-11T03:57:38.500Z,0
2018-12-11T03:58:38.490Z,0
2018-12-11T03:59:38.482Z,0
2018-12-11T04:00:38.478Z,0
2018-12-11T04:01:38.450Z,0
2018-12-11T04:02:38.206Z,0
2018-12-11T04:03:38.428Z,0
2018-12-11T04:04:38.411Z,0
2018-12-11T04:05:38.397Z,0
2018-12-11T04:06:38.639Z,0
2018-12-11T04:07:38.381Z,0
2018-12-11T04:08:38.362Z,0
2018-12-11T04:09:38.360Z,0
2018-12-11T04:10:38.330Z,0
2018-12-11T04:11:38.326Z,0
2018-12-11T04:12:38.314Z,0
2018-12-11T04:13:38.355Z,0
2018-12-11T04:14:38.286Z,0
2018-12-11T04:15:38.275Z,0
2018-12-11T04:16:38.269Z,0
2018-12-11T04:17:38.269Z,0
2018-12-11T04:18:38.242Z,0
2018-12-11T04:19:38.235Z,0
2018-12-11T04:20:38.238Z,0
2018-12-11T04:21:38.210Z,0
2018-12-11T04:22:38.200Z,0
2018-12-11T04:23:38.172Z,0
2018-12-11T04:24:38.212Z,0
2018-12-11T04:25:38.148Z,0
2018-12-11T04:26:38.138Z,0
2018-12-11T04:27:38.117Z,0
2018-12-11T04:28:38.107Z,0
2018-12-11T04:29:38.104Z,0
2018-12-11T04:30:38.092Z,0
2018-12-11T04:31:38.069Z,0
2018-12-11T04:32:38.059Z,0
2018-12-11T04:33:38.048Z,0
2018-12-11T04:34:38.029Z,0
2018-12-11T04:35:38.022Z,0
2018-12-11T04:36:38.015Z,0
2018-12-11T04:37:38.002Z,0
2018-12-11T04:38:37.982Z,0
2018-12-11T04:39:41.058Z,0
2018-12-11T04:40:37.972Z,0
2018-12-11T04:41:37.949Z,0
2018-12-11T04:42:37.930Z,0
2018-12-11T04:43:37.923Z,0
2018-12-11T04:44:37.906Z,0
2018-12-11T04:45:37.891Z,0
2018-12-11T04:46:37.879Z,0
2018-12-11T04:47:37.868Z,0
2018-12-11T04:48:37.851Z,0
2018-12-11T04:49:37.838Z,0
2018-12-11T04:50:37.831Z,0
2018-12-11T04:51:37.821Z,0
2018-12-11T04:52:37.804Z,0
2018-12-11T04:53:37.789Z,0
2018-12-11T04:54:37.776Z,0
2018-12-11T04:55:37.761Z,0
2018-12-11T04:56:37.748Z,0
2018-12-11T04:57:37.737Z,0
2018-12-11T04:58:37.721Z,0
2018-12-11T04:59:37.719Z,0
2018-12-11T05:00:37.704Z,0
2018-12-11T05:01:37.691Z,0
2018-12-11T05:02:37.684Z,0
2018-12-11T05:03:37.659Z,0
2018-12-11T05:04:37.646Z,0
2018-12-11T05:05:37.635Z,0
2018-12-11T05:06:38.294Z,0
2018-12-11T05:07:37.607Z,0
2018-12-11T05:08:37.603Z,0
2018-12-11T05:09:37.829Z,0
2018-12-11T05:10:37.565Z,20
2018-12-11T05:11:37.352Z,36
2018-12-11T05:12:37.547Z,40
2018-12-11T05:13:37.524Z,40
2018-12-11T05:14:37.518Z,40
2018-12-11T05:15:37.506Z,40
2018-12-11T05:16:37.484Z,40
2018-12-11T05:17:37.476Z,40
2018-12-11T05:18:37.464Z,40
2018-12-11T05:19:37.455Z,40
2018-12-11T05:20:37.440Z,40
2018-12-11T05:21:37.426Z,40
2018-12-11T05:22:37.408Z,40
2018-12-11T05:23:37.401Z,44
2018-12-11T05:24:37.384Z,44
2018-12-11T05:25:37.376Z,44
2018-12-11T05:26:37.352Z,44
2018-12-11T05:27:37.339Z,0
2018-12-11T05:28:37.325Z,0
2018-12-11T05:29:37.312Z,0
2018-12-11T05:30:37.310Z,0
2018-12-11T05:31:37.287Z,0
2018-12-11T05:32:37.275Z,0
2018-12-11T05:33:37.265Z,0
2018-12-11T05:34:37.245Z,0
2018-12-11T05:35:37.235Z,0
2018-12-11T05:36:37.218Z,0
2018-12-11T05:37:37.207Z,0
2018-12-11T05:38:37.192Z,0
2018-12-11T05:39:37.200Z,0
2018-12-11T05:40:37.415Z,0
2018-12-11T05:41:37.148Z,0
2018-12-11T05:42:37.139Z,0
2018-12-11T05:43:36.881Z,0
2018-12-11T05:44:37.111Z,0
2018-12-11T05:45:37.099Z,0
2018-12-11T05:46:37.086Z,0
2018-12-11T05:47:37.070Z,0
2018-12-11T05:48:37.057Z,0
2018-12-11T05:49:37.043Z,0
2018-12-11T05:50:37.032Z,0
2018-12-11T05:51:37.020Z,0
2018-12-11T05:52:37.006Z,0
2018-12-11T05:53:36.986Z,0
2018-12-11T05:54:36.973Z,0
2018-12-11T05:55:36.958Z,0
2018-12-11T05:56:36.709Z,0
2018-12-11T05:57:36.935Z,0
2018-12-11T05:58:36.925Z,0
2018-12-11T05:59:36.906Z,0
2018-12-11T06:00:36.897Z,0
2018-12-11T06:01:36.880Z,0
2018-12-11T06:02:36.875Z,0
2018-12-11T06:03:36.864Z,0
2018-12-11T06:04:36.844Z,0
2018-12-11T06:05:36.826Z,0
2018-12-11T06:06:36.827Z,0
2018-12-11T06:07:36.803Z,0
2018-12-11T06:08:36.784Z,0
2018-12-11T06:09:36.775Z,0
2018-12-11T06:10:36.761Z,0
2018-12-11T06:11:37.042Z,0
2018-12-11T06:12:36.773Z,0
2018-12-11T06:13:36.717Z,0
2018-12-11T06:14:36.704Z,0
2018-12-11T06:15:36.687Z,0
2018-12-11T06:16:36.681Z,0
2018-12-11T06:17:36.671Z,0
2018-12-11T06:18:36.668Z,0
2018-12-11T06:19:36.637Z,0
2018-12-11T06:20:36.955Z,0
2018-12-11T06:21:36.609Z,0
2018-12-11T06:22:36.595Z,0
2018-12-11T06:23:36.587Z,0
2018-12-11T06:24:36.568Z,0
2018-12-11T06:25:36.666Z,0
2018-12-11T06:26:36.539Z,0
2018-12-11T06:27:36.536Z,0
2018-12-11T06:28:36.513Z,0
2018-12-11T06:29:36.506Z,0
2018-12-11T06:30:36.487Z,0
2018-12-11T06:31:36.499Z,0
2018-12-11T06:32:36.458Z,0
2018-12-11T06:33:36.450Z,4
2018-12-11T06:34:36.474Z,0
2018-12-11T06:35:36.418Z,0
2018-12-11T06:36:36.406Z,4
2018-12-11T06:37:36.390Z,4
2018-12-11T06:38:36.377Z,4
2018-12-11T06:39:36.363Z,4
2018-12-11T06:40:36.355Z,8
2018-12-11T06:41:36.344Z,4
2018-12-11T06:42:36.572Z,8
2018-12-11T06:43:36.345Z,36
2018-12-11T06:44:36.290Z,48
2018-12-11T06:45:36.290Z,52
2018-12-11T06:46:36.262Z,56
2018-12-11T06:47:36.254Z,16
2018-12-11T06:48:36.234Z,24
2018-12-11T06:49:36.232Z,24
2018-12-11T06:50:36.218Z,32
2018-12-11T06:51:36.195Z,40
2018-12-11T06:52:36.176Z,48
2018-12-11T06:53:36.414Z,56
2018-12-11T06:54:36.146Z,64
2018-12-11T06:55:36.137Z,76
2018-12-11T06:56:36.123Z,84
2018-12-11T06:57:36.109Z,128
2018-12-11T06:58:36.091Z,148
2018-12-11T06:59:36.076Z,164
2018-12-11T07:00:36.068Z,172
2018-12-11T07:01:36.052Z,184
2018-12-11T07:02:36.040Z,184
2018-12-11T07:03:36.020Z,192
2018-12-11T07:04:36.003Z,192
2018-12-11T07:05:35.998Z,192
2018-12-11T07:06:35.976Z,208
2018-12-11T07:07:35.965Z,228
2018-12-11T07:08:35.952Z,232
2018-12-11T07:09:35.940Z,204
2018-12-11T07:10:35.930Z,188
2018-12-11T07:11:35.906Z,168
2018-12-11T07:12:35.891Z,200
2018-12-11T07:13:35.881Z,192
2018-12-11T07:14:35.861Z,200
2018-12-11T07:15:35.846Z,220
2018-12-11T07:16:36.784Z,260
2018-12-11T07:17:35.822Z,256
2018-12-11T07:18:35.806Z,252
2018-12-11T07:19:35.798Z,256
2018-12-11T07:20:35.776Z,276
2018-12-11T07:21:35.764Z,312
2018-12-11T07:22:35.748Z,328
2018-12-11T07:23:35.735Z,328
2018-12-11T07:24:35.790Z,336
2018-12-11T07:25:35.709Z,380
2018-12-11T07:26:35.687Z,376
2018-12-11T07:27:35.677Z,320
2018-12-11T07:28:35.679Z,244
2018-12-11T07:29:35.645Z,240
2018-12-11T07:30:35.638Z,224
2018-12-11T07:31:35.625Z,228
2018-12-11T07:32:35.607Z,248
2018-12-11T07:33:35.596Z,272
2018-12-11T07:34:35.589Z,332
2018-12-11T07:35:35.564Z,336
2018-12-11T07:36:35.552Z,432
2018-12-11T07:37:35.539Z,424
2018-12-11T07:38:37.070Z,408
2018-12-11T07:39:35.510Z,412
2018-12-11T07:40:35.494Z,480
2018-12-11T07:41:35.480Z,500
2018-12-11T07:42:35.463Z,500
2018-12-11T07:43:35.209Z,572
2018-12-11T07:44:35.446Z,584
2018-12-11T07:45:35.425Z,596
2018-12-11T07:46:35.417Z,692
2018-12-11T07:47:35.401Z,748
2018-12-11T07:48:35.385Z,868
2018-12-11T07:49:35.380Z,732
2018-12-11T07:50:35.362Z,828
2018-12-11T07:51:35.341Z,908
2018-12-11T07:52:35.332Z,1012
2018-12-11T07:53:35.324Z,1056
2018-12-11T07:54:35.305Z,840
2018-12-11T07:55:35.287Z,976
2018-12-11T07:56:35.272Z,1216
2018-12-11T07:57:35.259Z,1288
2018-12-11T07:58:35.255Z,1116
2018-12-11T07:59:35.238Z,736
2018-12-11T08:00:35.219Z,720
2018-12-11T08:01:35.202Z,744
2018-12-11T08:02:35.187Z,760
2018-12-11T08:03:34.952Z,1096
2018-12-11T08:04:35.168Z,1128
2018-12-11T08:05:35.161Z,1268
2018-12-11T08:06:35.134Z,1568
2018-12-11T08:07:35.123Z,1692
2018-12-11T08:08:35.112Z,1692
2018-12-11T08:09:35.103Z,1524
2018-12-11T08:10:35.095Z,1316
2018-12-11T08:11:35.069Z,1172
2018-12-11T08:12:35.053Z,1096
2018-12-11T08:13:35.042Z,1060
2018-12-11T08:14:35.027Z,1096
2018-12-11T08:15:35.012Z,1200
2018-12-11T08:16:35.244Z,1292
2018-12-11T08:17:34.984Z,1312
2018-12-11T08:18:34.975Z,1448
2018-12-11T08:19:34.962Z,1688
2018-12-11T08:20:34.942Z,2024
2018-12-11T08:21:34.933Z,2284
2018-12-11T08:22:34.919Z,2312
2018-12-11T08:23:34.902Z,2248
2018-12-11T08:24:34.891Z,2256
2018-12-11T08:25:34.880Z,2448
2018-12-11T08:26:34.902Z,2568
2018-12-11T08:27:34.851Z,2360
2018-12-11T08:28:36.043Z,1972
2018-12-11T08:29:34.821Z,1732
2018-12-11T08:30:34.865Z,1716
2018-12-11T08:31:34.801Z,1712
2018-12-11T08:32:34.777Z,1672
2018-12-11T08:33:34.765Z,1572
2018-12-11T08:34:34.752Z,1452
2018-12-11T08:35:34.738Z,1320
2018-12-11T08:36:34.724Z,1268
2018-12-11T08:37:34.714Z,1112
2018-12-11T08:38:34.696Z,1120
2018-12-11T08:39:34.696Z,1056
2018-12-11T08:40:34.672Z,932
2018-12-11T08:41:34.657Z,960
2018-12-11T08:42:34.646Z,980
2018-12-11T08:43:34.634Z,920
2018-12-11T08:44:34.619Z,1128
2018-12-11T08:45:34.607Z,1444
2018-12-11T08:46:34.590Z,1660
2018-12-11T08:47:34.828Z,1892
2018-12-11T08:48:34.562Z,2340
2018-12-11T08:49:34.548Z,2856
2018-12-11T08:50:34.610Z,3348
2018-12-11T08:51:34.522Z,3172
2018-12-11T08:52:34.504Z,2728
2018-12-11T08:53:34.497Z,2576
2018-12-11T08:54:34.482Z,2832
2018-12-11T08:55:34.470Z,3208
2018-12-11T08:56:34.458Z,3500
2018-12-11T08:57:34.442Z,3796
2018-12-11T08:58:34.430Z,4144
2018-12-11T08:59:34.417Z,4508
2018-12-11T09:00:34.400Z,4900
2018-12-11T09:01:34.387Z,4996
2018-12-11T09:02:34.376Z,5000
2018-12-11T09:03:34.366Z,5184
2018-12-11T09:04:34.348Z,5224
2018-12-11T09:05:34.339Z,5236
2018-12-11T09:06:34.316Z,5124
2018-12-11T09:07:34.302Z,4848
2018-12-11T09:08:34.297Z,4636
2018-12-11T09:09:34.287Z,4220
2018-12-11T09:10:34.264Z,3960
2018-12-11T09:11:34.254Z,3436
2018-12-11T09:12:34.246Z,3188
2018-12-11T09:13:34.226Z,3156
2018-12-11T09:14:34.214Z,3384
2018-12-11T09:15:34.197Z,4300
2018-12-11T09:16:34.183Z,5204
2018-12-11T09:17:34.175Z,5804
2018-12-11T09:18:34.409Z,5748
2018-12-11T09:19:34.146Z,5672
2018-12-11T09:20:34.132Z,5060
2018-12-11T09:21:34.189Z,4944
2018-12-11T09:22:34.101Z,5484
2018-12-11T09:23:34.096Z,4664
2018-12-11T09:24:34.081Z,4584
2018-12-11T09:25:34.064Z,4100
2018-12-11T09:26:35.416Z,4268
2018-12-11T09:27:34.046Z,4576
2018-12-11T09:28:34.029Z,5300
2018-12-11T09:29:34.015Z,4724
2018-12-11T09:30:33.998Z,4424
2018-12-11T09:31:33.989Z,5036
2018-12-11T09:32:33.971Z,5044
2018-12-11T09:33:33.960Z,5252
2018-12-11T09:34:33.954Z,5176
2018-12-11T09:35:33.934Z,5596
2018-12-11T09:36:33.927Z,5348
2018-12-11T09:37:33.912Z,4844
2018-12-11T09:38:33.896Z,5148
2018-12-11T09:39:33.880Z,4688
2018-12-11T09:40:33.881Z,3700
2018-12-11T09:41:33.859Z,3104
2018-12-11T09:42:35.193Z,2892
2018-12-11T09:43:33.832Z,3232
2018-12-11T09:44:33.815Z,3196
2018-12-11T09:45:33.807Z,3480
2018-12-11T09:46:33.789Z,3644
2018-12-11T09:47:33.784Z,3680
2018-12-11T09:48:33.765Z,3028
2018-12-11T09:49:35.006Z,3032
2018-12-11T09:50:33.806Z,3164
2018-12-11T09:51:33.727Z,2624
2018-12-11T09:52:33.714Z,2548
2018-12-11T09:53:33.739Z,2884
2018-12-11T09:54:33.687Z,3108
2018-12-11T09:55:33.670Z,2776
2018-12-11T09:56:33.574Z,2212
2018-12-11T09:57:33.650Z,1892
2018-12-11T09:58:33.635Z,1828
2018-12-11T09:59:33.625Z,1720
2018-12-11T10:00:34.765Z,1768
2018-12-11T10:01:33.623Z,1836
2018-12-11T10:02:33.595Z,1980
2018-12-11T10:03:33.771Z,1996
2018-12-11T10:04:33.560Z,2072
2018-12-11T10:05:33.545Z,2588
2018-12-11T10:06:33.526Z,2796
2018-12-11T10:07:33.515Z,2992
2018-12-11T10:08:33.507Z,3512
2018-12-11T10:09:33.496Z,3684
2018-12-11T10:10:33.479Z,3380
2018-12-11T10:11:33.468Z,4212
2018-12-11T10:12:33.455Z,4280
2018-12-11T10:13:33.435Z,4408
2018-12-11T10:14:33.425Z,4532
2018-12-11T10:15:33.409Z,4260
2018-12-11T10:16:33.395Z,4396
2018-12-11T10:17:33.387Z,4360
2018-12-11T10:18:33.381Z,4056
2018-12-11T10:19:33.358Z,3808
2018-12-11T10:20:33.346Z,3648
2018-12-11T10:21:33.090Z,3404
2018-12-11T10:22:33.321Z,4336
2018-12-11T10:23:39.033Z,4432
2018-12-11T10:24:33.296Z,3932
2018-12-11T10:25:33.285Z,3836
2018-12-11T10:26:33.354Z,3808
2018-12-11T10:27:33.255Z,3936
2018-12-11T10:28:33.015Z,3848
2018-12-11T10:29:33.231Z,3724
2018-12-11T10:30:33.219Z,3412
2018-12-11T10:31:33.211Z,3032
2018-12-11T10:32:33.191Z,2876
2018-12-11T10:33:33.181Z,2816
2018-12-11T10:34:33.169Z,3028
2018-12-11T10:35:33.150Z,3120
2018-12-11T10:36:33.138Z,3464
2018-12-11T10:37:33.128Z,3500
2018-12-11T10:38:33.118Z,3272
2018-12-11T10:39:32.855Z,3180
2018-12-11T10:40:33.084Z,2840
2018-12-11T10:41:33.082Z,2800
2018-12-11T10:42:33.065Z,3324
2018-12-11T10:43:33.047Z,3036
2018-12-11T10:44:33.039Z,3120
2018-12-11T10:45:33.048Z,3120
2018-12-11T10:46:38.605Z,3436
2018-12-11T10:47:32.999Z,3696
2018-12-11T10:48:32.983Z,3696
2018-12-11T10:49:32.983Z,3532
2018-12-11T10:50:32.959Z,3400
2018-12-11T10:51:32.952Z,3404
2018-12-11T10:52:32.942Z,3256
2018-12-11T10:53:32.919Z,3204
2018-12-11T10:54:32.903Z,3320
2018-12-11T10:55:32.898Z,3276
2018-12-11T10:56:32.892Z,3188
2018-12-11T10:57:32.866Z,2992
2018-12-11T10:58:32.854Z,2884
2018-12-11T10:59:32.848Z,2912
2018-12-11T11:00:32.829Z,2892
2018-12-11T11:01:32.831Z,2892
2018-12-11T11:02:32.814Z,2956
2018-12-11T11:03:32.796Z,2896
2018-12-11T11:04:32.784Z,2868
2018-12-11T11:05:32.764Z,2832
2018-12-11T11:06:32.753Z,2840
2018-12-11T11:07:32.741Z,2796
2018-12-11T11:08:32.725Z,2816
2018-12-11T11:09:32.734Z,2872
2018-12-11T11:10:32.761Z,2984
2018-12-11T11:11:32.713Z,3056
2018-12-11T11:12:32.715Z,3212
2018-12-11T11:13:32.668Z,3240
2018-12-11T11:14:32.710Z,3108
2018-12-11T11:15:32.755Z,3052
2018-12-11T11:16:32.629Z,2900
2018-12-11T11:17:32.623Z,2844
2018-12-11T11:18:32.599Z,2804
2018-12-11T11:19:32.590Z,2812
2018-12-11T11:20:32.573Z,2728
2018-12-11T11:21:32.564Z,2728
2018-12-11T11:22:32.549Z,2712
2018-12-11T11:23:32.789Z,2716
2018-12-11T11:24:32.522Z,2708
2018-12-11T11:25:32.545Z,2664
2018-12-11T11:26:32.509Z,2684
2018-12-11T11:27:32.483Z,2720
2018-12-11T11:28:32.234Z,2732
2018-12-11T11:29:32.461Z,2592
2018-12-11T11:30:32.445Z,2604
2018-12-11T11:31:32.438Z,2704
2018-12-11T11:32:32.175Z,2744
2018-12-11T11:33:32.409Z,2684
2018-12-11T11:34:32.394Z,2596
2018-12-11T11:35:32.383Z,2560
2018-12-11T11:36:32.369Z,2556
2018-12-11T11:37:32.356Z,2548
2018-12-11T11:38:32.356Z,2564
2018-12-11T11:39:32.540Z,2560
2018-12-11T11:40:32.317Z,2532
2018-12-11T11:41:32.315Z,2500
2018-12-11T11:42:32.286Z,2388
2018-12-11T11:43:32.287Z,2428
2018-12-11T11:44:32.262Z,2404
2018-12-11T11:45:32.254Z,2456
2018-12-11T11:46:32.253Z,2492
2018-12-11T11:47:32.225Z,2488
2018-12-11T11:48:32.210Z,2512
2018-12-11T11:49:32.204Z,2504
2018-12-11T11:50:32.183Z,2444
2018-12-11T11:51:32.175Z,2420
2018-12-11T11:52:32.157Z,2448
2018-12-11T11:53:32.158Z,2408
2018-12-11T11:54:32.383Z,2376
2018-12-11T11:55:32.118Z,2352
2018-12-11T11:56:32.103Z,2300
2018-12-11T11:57:36.832Z,2392
2018-12-11T11:58:32.101Z,2416
2018-12-11T11:59:32.067Z,2420
2018-12-11T12:00:32.052Z,2452
2018-12-11T12:01:32.039Z,2480
2018-12-11T12:02:38.057Z,2508
2018-12-11T12:03:31.783Z,2528
2018-12-11T12:04:31.997Z,2432
2018-12-11T12:05:31.986Z,2360
2018-12-11T12:06:31.971Z,2360
2018-12-11T12:07:31.960Z,2396
2018-12-11T12:08:31.964Z,2340
2018-12-11T12:09:31.931Z,2260
2018-12-11T12:10:31.918Z,2224
2018-12-11T12:11:31.914Z,2204
2018-12-11T12:12:31.890Z,2208
2018-12-11T12:13:31.878Z,2188
2018-12-11T12:14:31.863Z,2152
2018-12-11T12:15:31.852Z,2156
2018-12-11T12:16:31.840Z,2160
2018-12-11T12:17:31.821Z,2120
2018-12-11T12:18:31.815Z,2084
2018-12-11T12:19:31.799Z,2084
2018-12-11T12:20:31.788Z,2144
2018-12-11T12:21:31.770Z,2108
2018-12-11T12:22:31.764Z,2072
2018-12-11T12:23:31.739Z,2024
2018-12-11T12:24:31.735Z,1944
2018-12-11T12:25:31.974Z,1876
2018-12-11T12:26:33.174Z,1892
2018-12-11T12:27:31.755Z,1920
2018-12-11T12:28:31.674Z,1928
2018-12-11T12:29:31.660Z,1928
2018-12-11T12:30:31.643Z,1824
2018-12-11T12:31:31.628Z,1740
2018-12-11T12:32:31.622Z,1692
2018-12-11T12:33:31.605Z,1744
2018-12-11T12:34:31.597Z,1788
2018-12-11T12:35:31.575Z,1816
2018-12-11T12:36:31.567Z,1944
2018-12-11T12:37:31.548Z,2032
2018-12-11T12:38:31.536Z,2028
2018-12-11T12:39:31.522Z,1944
2018-12-11T12:40:31.512Z,1888
2018-12-11T12:41:31.498Z,1728
2018-12-11T12:42:31.486Z,1812
2018-12-11T12:43:31.464Z,1816
2018-12-11T12:44:31.463Z,1756
2018-12-11T12:45:31.439Z,1824
2018-12-11T12:46:31.429Z,1856
2018-12-11T12:47:31.433Z,1908
2018-12-11T12:48:31.410Z,1920
2018-12-11T12:49:31.391Z,1948
2018-12-11T12:50:31.372Z,1948
2018-12-11T12:51:31.124Z,1892
2018-12-11T12:52:31.348Z,1876
2018-12-11T12:53:31.334Z,1892
2018-12-11T12:54:31.322Z,1860
2018-12-11T12:55:31.531Z,1928
2018-12-11T12:56:31.357Z,1968
2018-12-11T12:57:31.284Z,1872
2018-12-11T12:58:31.265Z,1720
2018-12-11T12:59:31.258Z,1744
2018-12-11T13:00:31.240Z,1780
2018-12-11T13:01:31.229Z,1792
2018-12-11T13:02:31.210Z,1736
2018-12-11T13:03:31.205Z,1644
2018-12-11T13:04:31.193Z,1648
2018-12-11T13:05:31.177Z,1700
2018-12-11T13:06:31.159Z,1692
2018-12-11T13:07:31.147Z,1644
2018-12-11T13:08:31.132Z,1652
2018-12-11T13:09:31.118Z,1736
2018-12-11T13:10:31.115Z,1696
2018-12-11T13:11:31.097Z,1588
2018-12-11T13:12:31.084Z,1576
2018-12-11T13:13:31.068Z,1608
2018-12-11T13:14:31.046Z,1640
2018-12-11T13:15:31.038Z,1588
2018-12-11T13:16:31.028Z,1472
2018-12-11T13:17:31.011Z,1396
2018-12-11T13:18:30.995Z,1492
2018-12-11T13:19:30.983Z,1472
2018-12-11T13:20:30.968Z,1432
2018-12-11T13:21:30.952Z,1288
2018-12-11T13:22:30.945Z,1220
2018-12-11T13:23:30.935Z,1332
2018-12-11T13:24:30.914Z,1348
2018-12-11T13:25:30.897Z,1240
2018-12-11T13:26:30.885Z,1156
2018-12-11T13:27:30.881Z,1096
2018-12-11T13:28:31.127Z,1060
2018-12-11T13:29:30.844Z,1068
2018-12-11T13:30:30.839Z,924
2018-12-11T13:31:30.816Z,844
2018-12-11T13:32:30.813Z,828
2018-12-11T13:33:30.796Z,808
2018-12-11T13:34:30.781Z,812
2018-12-11T13:35:30.777Z,876
2018-12-11T13:36:36.994Z,916
2018-12-11T13:37:30.744Z,868
2018-12-11T13:38:30.731Z,844
2018-12-11T13:39:30.767Z,808
2018-12-11T13:40:30.703Z,784
2018-12-11T13:41:30.685Z,816
2018-12-11T13:42:30.683Z,768
2018-12-11T13:43:30.661Z,716
2018-12-11T13:44:30.651Z,680
2018-12-11T13:45:30.651Z,596
2018-12-11T13:46:30.758Z,528
2018-12-11T13:47:30.603Z,564
2018-12-11T13:48:30.791Z,552
2018-12-11T13:49:30.580Z,492
2018-12-11T13:50:30.571Z,484
2018-12-11T13:51:30.562Z,504
2018-12-11T13:52:30.541Z,476
2018-12-11T13:53:30.529Z,456
2018-12-11T13:54:30.513Z,420
2018-12-11T13:55:30.503Z,388
2018-12-11T13:56:30.484Z,388
2018-12-11T13:57:30.489Z,400
2018-12-11T13:58:30.462Z,404
2018-12-11T13:59:30.693Z,412
2018-12-11T14:00:30.438Z,408
2018-12-11T14:01:30.421Z,376
2018-12-11T14:02:30.407Z,352